sensor_id;sensor_type;location;lat;lon;timestamp;P1;durP1;ratioP1;P2;durP2;ratioP2
15383;SDS011;7790;53.022;12.968;2022-09-06T00:01:25;1.83;;;1.00;;
15383;SDS011;7790;53.022;12.968;2022-09-06T00:05:27;1.30;;;1.13;;
15383;SDS011;7790;53.022;12.968;2022-09-06T00:09:28;0.90;;;0.90;;
15383;SDS011;7790;53.022;12.968;2022-09-06T00:13:28;1.43;;;1.20;;
15383;SDS011;7790;53.022;12.968;2022-09-06T00:17:30;1.30;;;1.20;;
15383;SDS011;7790;53.022;12.968;2022-09-06T00:21:32;1.40;;;1.30;;
15383;SDS011;7790;53.022;12.968;2022-09-06T00:25:34;1.00;;;0.90;;
15383;SDS011;7790;53.022;12.968;2022-09-06T00:29:35;2.97;;;1.60;;
15383;SDS011;7790;53.022;12.968;2022-09-06T00:33:36;2.40;;;1.30;;
15383;SDS011;7790;53.022;12.968;2022-09-06T00:37:37;1.57;;;1.20;;
15383;SDS011;7790;53.022;12.968;2022-09-06T00:41:38;2.03;;;1.10;;
15383;SDS011;7790;53.022;12.968;2022-09-06T00:45:39;2.57;;;1.00;;
15383;SDS011;7790;53.022;12.968;2022-09-06T00:49:41;1.70;;;1.10;;
15383;SDS011;7790;53.022;12.968;2022-09-06T00:53:45;1.90;;;1.10;;
15383;SDS011;7790;53.022;12.968;2022-09-06T00:57:47;3.20;;;1.20;;
15383;SDS011;7790;53.022;12.968;2022-09-06T01:01:50;1.60;;;1.10;;
15383;SDS011;7790;53.022;12.968;2022-09-06T01:36:21;2.03;;;1.10;;
15383;SDS011;7790;53.022;12.968;2022-09-06T01:40:25;1.27;;;1.10;;
15383;SDS011;7790;53.022;12.968;2022-09-06T01:44:27;1.97;;;1.10;;
15383;SDS011;7790;53.022;12.968;2022-09-06T02:01:35;1.33;;;1.03;;
15383;SDS011;7790;53.022;12.968;2022-09-06T02:06:01;1.43;;;1.20;;
15383;SDS011;7790;53.022;12.968;2022-09-06T02:14:25;0.80;;;0.70;;
15383;SDS011;7790;53.022;12.968;2022-09-06T02:18:34;0.93;;;0.93;;
15383;SDS011;7790;53.022;12.968;2022-09-06T02:22:44;0.87;;;0.87;;
15383;SDS011;7790;53.022;12.968;2022-09-06T02:26:47;1.20;;;1.10;;
15383;SDS011;7790;53.022;12.968;2022-09-06T02:30:49;1.73;;;1.10;;
15383;SDS011;7790;53.022;12.968;2022-09-06T02:34:55;2.00;;;0.90;;
15383;SDS011;7790;53.022;12.968;2022-09-06T02:38:58;1.47;;;1.07;;
15383;SDS011;7790;53.022;12.968;2022-09-06T02:42:59;1.30;;;1.03;;
15383;SDS011;7790;53.022;12.968;2022-09-06T02:47:00;2.30;;;1.00;;
15383;SDS011;7790;53.022;12.968;2022-09-06T02:51:03;1.40;;;1.30;;
15383;SDS011;7790;53.022;12.968;2022-09-06T02:55:05;1.97;;;1.17;;
15383;SDS011;7790;53.022;12.968;2022-09-06T02:59:06;0.70;;;0.70;;
15383;SDS011;7790;53.022;12.968;2022-09-06T03:03:07;0.90;;;0.90;;
15383;SDS011;7790;53.022;12.968;2022-09-06T03:07:08;1.20;;;1.10;;
15383;SDS011;7790;53.022;12.968;2022-09-06T03:11:09;0.80;;;0.80;;
15383;SDS011;7790;53.022;12.968;2022-09-06T03:15:10;1.30;;;1.20;;
15383;SDS011;7790;53.022;12.968;2022-09-06T03:19:13;5.27;;;1.20;;
15383;SDS011;7790;53.022;12.968;2022-09-06T03:23:14;1.47;;;0.90;;
15383;SDS011;7790;53.022;12.968;2022-09-06T03:27:14;1.43;;;1.00;;
15383;SDS011;7790;53.022;12.968;2022-09-06T03:31:15;4.77;;;1.10;;
15383;SDS011;7790;53.022;12.968;2022-09-06T03:35:16;2.93;;;1.03;;
15383;SDS011;7790;53.022;12.968;2022-09-06T03:39:17;2.57;;;1.03;;
15383;SDS011;7790;53.022;12.968;2022-09-06T03:43:19;1.30;;;1.10;;
15383;SDS011;7790;53.022;12.968;2022-09-06T03:47:21;2.20;;;1.20;;
15383;SDS011;7790;53.022;12.968;2022-09-06T03:51:21;5.20;;;1.20;;
15383;SDS011;7790;53.022;12.968;2022-09-06T03:55:22;2.77;;;1.23;;
15383;SDS011;7790;53.022;12.968;2022-09-06T03:59:23;2.50;;;1.17;;
15383;SDS011;7790;53.022;12.968;2022-09-06T04:03:24;0.87;;;0.83;;
15383;SDS011;7790;53.022;12.968;2022-09-06T04:07:25;1.53;;;1.00;;
15383;SDS011;7790;53.022;12.968;2022-09-06T04:11:26;1.80;;;0.97;;
15383;SDS011;7790;53.022;12.968;2022-09-06T04:15:26;1.00;;;1.00;;
15383;SDS011;7790;53.022;12.968;2022-09-06T04:19:27;2.23;;;1.03;;
15383;SDS011;7790;53.022;12.968;2022-09-06T04:23:28;2.13;;;1.40;;
15383;SDS011;7790;53.022;12.968;2022-09-06T04:27:29;0.93;;;0.80;;
15383;SDS011;7790;53.022;12.968;2022-09-06T04:31:30;2.80;;;1.13;;
15383;SDS011;7790;53.022;12.968;2022-09-06T04:35:31;1.70;;;0.87;;
15383;SDS011;7790;53.022;12.968;2022-09-06T04:39:32;3.10;;;1.17;;
15383;SDS011;7790;53.022;12.968;2022-09-06T04:43:33;2.40;;;1.07;;
15383;SDS011;7790;53.022;12.968;2022-09-06T04:47:34;1.40;;;1.00;;
15383;SDS011;7790;53.022;12.968;2022-09-06T04:51:35;0.90;;;0.90;;
15383;SDS011;7790;53.022;12.968;2022-09-06T04:55:38;1.60;;;0.90;;
15383;SDS011;7790;53.022;12.968;2022-09-06T04:59:39;0.67;;;0.67;;
15383;SDS011;7790;53.022;12.968;2022-09-06T05:03:40;2.53;;;1.13;;
15383;SDS011;7790;53.022;12.968;2022-09-06T05:07:40;9.23;;;2.00;;
15383;SDS011;7790;53.022;12.968;2022-09-06T05:11:41;7.70;;;1.67;;
15383;SDS011;7790;53.022;12.968;2022-09-06T05:15:42;7.63;;;2.20;;
15383;SDS011;7790;53.022;12.968;2022-09-06T05:19:43;4.87;;;1.77;;
15383;SDS011;7790;53.022;12.968;2022-09-06T05:23:44;4.23;;;1.33;;
15383;SDS011;7790;53.022;12.968;2022-09-06T05:27:45;3.83;;;1.43;;
15383;SDS011;7790;53.022;12.968;2022-09-06T05:31:46;3.93;;;1.37;;
15383;SDS011;7790;53.022;12.968;2022-09-06T05:35:47;3.83;;;1.00;;
15383;SDS011;7790;53.022;12.968;2022-09-06T05:39:48;4.13;;;1.57;;
15383;SDS011;7790;53.022;12.968;2022-09-06T05:43:49;2.93;;;1.10;;
15383;SDS011;7790;53.022;12.968;2022-09-06T05:47:49;2.50;;;1.13;;
15383;SDS011;7790;53.022;12.968;2022-09-06T05:51:50;2.70;;;1.10;;
15383;SDS011;7790;53.022;12.968;2022-09-06T05:55:51;4.50;;;1.40;;
15383;SDS011;7790;53.022;12.968;2022-09-06T05:59:52;1.57;;;1.37;;
15383;SDS011;7790;53.022;12.968;2022-09-06T06:04:00;2.90;;;1.30;;
15383;SDS011;7790;53.022;12.968;2022-09-06T06:08:03;2.40;;;1.10;;
15383;SDS011;7790;53.022;12.968;2022-09-06T06:12:04;1.97;;;1.00;;
15383;SDS011;7790;53.022;12.968;2022-09-06T06:16:06;1.30;;;1.10;;
15383;SDS011;7790;53.022;12.968;2022-09-06T06:20:07;0.90;;;0.80;;
15383;SDS011;7790;53.022;12.968;2022-09-06T06:24:08;1.80;;;1.10;;
15383;SDS011;7790;53.022;12.968;2022-09-06T06:28:09;2.10;;;1.13;;
15383;SDS011;7790;53.022;12.968;2022-09-06T06:32:10;2.07;;;1.03;;
15383;SDS011;7790;53.022;12.968;2022-09-06T06:40:12;1.43;;;1.00;;
15383;SDS011;7790;53.022;12.968;2022-09-06T06:44:13;2.30;;;1.00;;
15383;SDS011;7790;53.022;12.968;2022-09-06T06:48:14;1.07;;;0.97;;
15383;SDS011;7790;53.022;12.968;2022-09-06T06:52:15;3.47;;;0.90;;
15383;SDS011;7790;53.022;12.968;2022-09-06T07:00:20;0.97;;;0.97;;
15383;SDS011;7790;53.022;12.968;2022-09-06T07:04:21;0.93;;;0.93;;
15383;SDS011;7790;53.022;12.968;2022-09-06T07:08:22;1.37;;;1.00;;
15383;SDS011;7790;53.022;12.968;2022-09-06T07:12:23;0.97;;;0.97;;
15383;SDS011;7790;53.022;12.968;2022-09-06T07:16:24;1.20;;;0.90;;
15383;SDS011;7790;53.022;12.968;2022-09-06T07:20:27;1.03;;;0.93;;
15383;SDS011;7790;53.022;12.968;2022-09-06T07:24:28;1.13;;;0.87;;
15383;SDS011;7790;53.022;12.968;2022-09-06T07:28:29;1.10;;;0.83;;
15383;SDS011;7790;53.022;12.968;2022-09-06T07:32:33;0.87;;;0.73;;
15383;SDS011;7790;53.022;12.968;2022-09-06T07:36:34;0.70;;;0.60;;
15383;SDS011;7790;53.022;12.968;2022-09-06T07:40:35;0.80;;;0.80;;
15383;SDS011;7790;53.022;12.968;2022-09-06T07:44:35;1.17;;;0.80;;
15383;SDS011;7790;53.022;12.968;2022-09-06T07:48:37;0.80;;;0.80;;
15383;SDS011;7790;53.022;12.968;2022-09-06T07:52:39;1.23;;;0.80;;
15383;SDS011;7790;53.022;12.968;2022-09-06T07:56:40;0.97;;;0.90;;
15383;SDS011;7790;53.022;12.968;2022-09-06T08:00:41;1.20;;;0.67;;
15383;SDS011;7790;53.022;12.968;2022-09-06T08:04:42;0.90;;;0.90;;
15383;SDS011;7790;53.022;12.968;2022-09-06T08:08:43;1.57;;;0.83;;
15383;SDS011;7790;53.022;12.968;2022-09-06T08:12:44;0.80;;;0.80;;
15383;SDS011;7790;53.022;12.968;2022-09-06T08:16:45;0.70;;;0.70;;
15383;SDS011;7790;53.022;12.968;2022-09-06T08:20:46;0.90;;;0.90;;
15383;SDS011;7790;53.022;12.968;2022-09-06T08:24:47;1.10;;;0.80;;
15383;SDS011;7790;53.022;12.968;2022-09-06T08:32:56;3.87;;;1.00;;
15383;SDS011;7790;53.022;12.968;2022-09-06T08:36:57;9.07;;;1.67;;
15383;SDS011;7790;53.022;12.968;2022-09-06T08:41:05;2.30;;;1.07;;
15383;SDS011;7790;53.022;12.968;2022-09-06T08:45:14;1.53;;;0.80;;
15383;SDS011;7790;53.022;12.968;2022-09-06T08:49:18;2.03;;;1.20;;
15383;SDS011;7790;53.022;12.968;2022-09-06T08:53:19;7.80;;;1.30;;
15383;SDS011;7790;53.022;12.968;2022-09-06T08:57:29;3.57;;;1.23;;
15383;SDS011;7790;53.022;12.968;2022-09-06T09:05:48;4.53;;;1.10;;
15383;SDS011;7790;53.022;12.968;2022-09-06T09:09:52;2.20;;;1.10;;
15383;SDS011;7790;53.022;12.968;2022-09-06T09:18:03;2.60;;;1.10;;
15383;SDS011;7790;53.022;12.968;2022-09-06T09:22:04;5.23;;;1.20;;
15383;SDS011;7790;53.022;12.968;2022-09-06T09:26:06;2.63;;;1.10;;
15383;SDS011;7790;53.022;12.968;2022-09-06T09:30:11;1.47;;;0.87;;
15383;SDS011;7790;53.022;12.968;2022-09-06T09:34:13;1.37;;;0.90;;
15383;SDS011;7790;53.022;12.968;2022-09-06T09:38:39;1.20;;;0.87;;
15383;SDS011;7790;53.022;12.968;2022-09-06T09:42:44;3.47;;;1.00;;
15383;SDS011;7790;53.022;12.968;2022-09-06T09:46:45;1.07;;;0.90;;
15383;SDS011;7790;53.022;12.968;2022-09-06T09:50:46;4.53;;;1.20;;
15383;SDS011;7790;53.022;12.968;2022-09-06T09:54:47;1.53;;;1.13;;
15383;SDS011;7790;53.022;12.968;2022-09-06T09:58:53;2.27;;;0.97;;
15383;SDS011;7790;53.022;12.968;2022-09-06T10:02:57;1.73;;;1.10;;
15383;SDS011;7790;53.022;12.968;2022-09-06T10:15:48;2.37;;;1.00;;
15383;SDS011;7790;53.022;12.968;2022-09-06T10:19:51;2.63;;;1.20;;
15383;SDS011;7790;53.022;12.968;2022-09-06T10:24:05;1.50;;;1.00;;
15383;SDS011;7790;53.022;12.968;2022-09-06T10:33:04;2.13;;;1.03;;
15383;SDS011;7790;53.022;12.968;2022-09-06T10:41:31;1.37;;;1.03;;
15383;SDS011;7790;53.022;12.968;2022-09-06T10:49:34;4.30;;;1.37;;
15383;SDS011;7790;53.022;12.968;2022-09-06T10:57:54;2.33;;;1.10;;
15383;SDS011;7790;53.022;12.968;2022-09-06T11:06:42;2.40;;;1.00;;
15383;SDS011;7790;53.022;12.968;2022-09-06T11:10:46;1.53;;;0.90;;
15383;SDS011;7790;53.022;12.968;2022-09-06T11:14:51;1.00;;;1.00;;
15383;SDS011;7790;53.022;12.968;2022-09-06T11:18:59;2.10;;;1.07;;
15383;SDS011;7790;53.022;12.968;2022-09-06T11:27:34;1.10;;;1.00;;
15383;SDS011;7790;53.022;12.968;2022-09-06T11:31:54;1.30;;;1.20;;
15383;SDS011;7790;53.022;12.968;2022-09-06T11:36:32;3.53;;;1.37;;
15383;SDS011;7790;53.022;12.968;2022-09-06T11:40:36;3.07;;;1.33;;
15383;SDS011;7790;53.022;12.968;2022-09-06T11:49:06;2.47;;;1.30;;
15383;SDS011;7790;53.022;12.968;2022-09-06T11:53:14;2.73;;;1.33;;
15383;SDS011;7790;53.022;12.968;2022-09-06T11:57:19;4.47;;;1.30;;
15383;SDS011;7790;53.022;12.968;2022-09-06T12:09:35;1.97;;;1.30;;
15383;SDS011;7790;53.022;12.968;2022-09-06T12:13:46;2.20;;;1.30;;
15383;SDS011;7790;53.022;12.968;2022-09-06T12:17:56;4.07;;;1.50;;
15383;SDS011;7790;53.022;12.968;2022-09-06T12:21:59;1.63;;;1.40;;
15383;SDS011;7790;53.022;12.968;2022-09-06T12:26:09;2.40;;;1.63;;
15383;SDS011;7790;53.022;12.968;2022-09-06T12:30:11;2.63;;;1.63;;
15383;SDS011;7790;53.022;12.968;2022-09-06T12:34:29;1.93;;;1.40;;
15383;SDS011;7790;53.022;12.968;2022-09-06T12:38:32;1.50;;;1.40;;
15383;SDS011;7790;53.022;12.968;2022-09-06T12:42:33;9.30;;;4.63;;
15383;SDS011;7790;53.022;12.968;2022-09-06T12:46:37;10.73;;;6.47;;
15383;SDS011;7790;53.022;12.968;2022-09-06T12:50:43;8.63;;;5.93;;
15383;SDS011;7790;53.022;12.968;2022-09-06T12:54:48;9.00;;;4.63;;
15383;SDS011;7790;53.022;12.968;2022-09-06T12:58:49;6.80;;;4.27;;
15383;SDS011;7790;53.022;12.968;2022-09-06T13:02:52;8.77;;;3.57;;
15383;SDS011;7790;53.022;12.968;2022-09-06T13:07:03;9.37;;;4.10;;
15383;SDS011;7790;53.022;12.968;2022-09-06T13:11:07;7.70;;;3.50;;
15383;SDS011;7790;53.022;12.968;2022-09-06T13:15:10;5.87;;;3.33;;
15383;SDS011;7790;53.022;12.968;2022-09-06T13:19:30;5.40;;;3.17;;
15383;SDS011;7790;53.022;12.968;2022-09-06T13:23:41;4.33;;;3.00;;
15383;SDS011;7790;53.022;12.968;2022-09-06T13:27:45;5.50;;;3.00;;
15383;SDS011;7790;53.022;12.968;2022-09-06T13:31:52;5.87;;;2.70;;
15383;SDS011;7790;53.022;12.968;2022-09-06T13:44:39;5.00;;;2.60;;
15383;SDS011;7790;53.022;12.968;2022-09-06T13:48:40;7.60;;;2.60;;
15383;SDS011;7790;53.022;12.968;2022-09-06T13:52:43;5.83;;;2.43;;
15383;SDS011;7790;53.022;12.968;2022-09-06T13:56:43;6.60;;;2.53;;
15383;SDS011;7790;53.022;12.968;2022-09-06T14:00:44;5.20;;;2.60;;
15383;SDS011;7790;53.022;12.968;2022-09-06T14:04:46;8.03;;;2.70;;
15383;SDS011;7790;53.022;12.968;2022-09-06T14:08:47;4.27;;;2.10;;
15383;SDS011;7790;53.022;12.968;2022-09-06T14:12:48;4.43;;;2.20;;
15383;SDS011;7790;53.022;12.968;2022-09-06T14:16:49;4.67;;;1.90;;
15383;SDS011;7790;53.022;12.968;2022-09-06T14:20:51;3.00;;;2.37;;
15383;SDS011;7790;53.022;12.968;2022-09-06T14:24:53;4.23;;;2.00;;
15383;SDS011;7790;53.022;12.968;2022-09-06T14:28:54;5.50;;;1.70;;
15383;SDS011;7790;53.022;12.968;2022-09-06T14:32:55;3.50;;;1.63;;
15383;SDS011;7790;53.022;12.968;2022-09-06T14:36:57;2.80;;;1.90;;
15383;SDS011;7790;53.022;12.968;2022-09-06T14:41:01;2.67;;;2.23;;
15383;SDS011;7790;53.022;12.968;2022-09-06T14:45:03;2.20;;;1.77;;
15383;SDS011;7790;53.022;12.968;2022-09-06T14:49:06;4.77;;;2.07;;
15383;SDS011;7790;53.022;12.968;2022-09-06T14:53:09;3.93;;;2.10;;
15383;SDS011;7790;53.022;12.968;2022-09-06T14:57:10;3.37;;;1.83;;
15383;SDS011;7790;53.022;12.968;2022-09-06T15:05:12;2.67;;;1.80;;
15383;SDS011;7790;53.022;12.968;2022-09-06T15:09:13;2.07;;;1.77;;
15383;SDS011;7790;53.022;12.968;2022-09-06T15:13:15;3.17;;;1.90;;
15383;SDS011;7790;53.022;12.968;2022-09-06T15:17:16;3.63;;;1.77;;
15383;SDS011;7790;53.022;12.968;2022-09-06T15:21:17;2.67;;;1.80;;
15383;SDS011;7790;53.022;12.968;2022-09-06T15:25:17;3.87;;;1.73;;
15383;SDS011;7790;53.022;12.968;2022-09-06T15:29:18;2.10;;;1.90;;
15383;SDS011;7790;53.022;12.968;2022-09-06T15:33:19;1.93;;;1.50;;
15383;SDS011;7790;53.022;12.968;2022-09-06T15:37:20;1.97;;;1.87;;
15383;SDS011;7790;53.022;12.968;2022-09-06T15:41:22;8.77;;;2.20;;
15383;SDS011;7790;53.022;12.968;2022-09-06T15:45:24;9.07;;;2.57;;
15383;SDS011;7790;53.022;12.968;2022-09-06T15:49:27;7.90;;;2.40;;
15383;SDS011;7790;53.022;12.968;2022-09-06T15:53:30;6.23;;;3.13;;
15383;SDS011;7790;53.022;12.968;2022-09-06T15:57:31;7.40;;;3.17;;
15383;SDS011;7790;53.022;12.968;2022-09-06T16:01:32;8.73;;;4.30;;
15383;SDS011;7790;53.022;12.968;2022-09-06T16:05:33;4.87;;;3.83;;
15383;SDS011;7790;53.022;12.968;2022-09-06T16:09:34;5.30;;;3.60;;
15383;SDS011;7790;53.022;12.968;2022-09-06T16:13:36;10.93;;;5.00;;
15383;SDS011;7790;53.022;12.968;2022-09-06T16:17:38;12.37;;;4.87;;
15383;SDS011;7790;53.022;12.968;2022-09-06T16:21:39;9.17;;;3.97;;
15383;SDS011;7790;53.022;12.968;2022-09-06T16:25:45;9.30;;;4.20;;
15383;SDS011;7790;53.022;12.968;2022-09-06T16:29:52;9.10;;;3.77;;
15383;SDS011;7790;53.022;12.968;2022-09-06T16:33:54;6.53;;;3.60;;
15383;SDS011;7790;53.022;12.968;2022-09-06T16:37:57;8.07;;;3.90;;
15383;SDS011;7790;53.022;12.968;2022-09-06T16:41:59;4.67;;;3.30;;
15383;SDS011;7790;53.022;12.968;2022-09-06T16:46:01;6.87;;;3.50;;
15383;SDS011;7790;53.022;12.968;2022-09-06T16:50:03;20.47;;;4.30;;
15383;SDS011;7790;53.022;12.968;2022-09-06T16:54:04;9.03;;;3.30;;
15383;SDS011;7790;53.022;12.968;2022-09-06T16:58:05;7.80;;;3.27;;
15383;SDS011;7790;53.022;12.968;2022-09-06T17:02:06;5.77;;;2.90;;
15383;SDS011;7790;53.022;12.968;2022-09-06T17:06:07;9.87;;;3.40;;
15383;SDS011;7790;53.022;12.968;2022-09-06T17:10:08;7.37;;;3.50;;
15383;SDS011;7790;53.022;12.968;2022-09-06T17:14:09;6.77;;;2.97;;
15383;SDS011;7790;53.022;12.968;2022-09-06T17:18:11;9.43;;;2.90;;
15383;SDS011;7790;53.022;12.968;2022-09-06T17:22:12;3.33;;;2.70;;
15383;SDS011;7790;53.022;12.968;2022-09-06T17:26:14;4.87;;;2.50;;
15383;SDS011;7790;53.022;12.968;2022-09-06T17:30:16;6.00;;;2.30;;
15383;SDS011;7790;53.022;12.968;2022-09-06T17:34:17;4.50;;;2.27;;
15383;SDS011;7790;53.022;12.968;2022-09-06T17:38:17;3.80;;;2.47;;
15383;SDS011;7790;53.022;12.968;2022-09-06T17:42:18;4.60;;;2.60;;
15383;SDS011;7790;53.022;12.968;2022-09-06T17:46:20;4.00;;;2.30;;
15383;SDS011;7790;53.022;12.968;2022-09-06T17:50:21;2.77;;;2.10;;
15383;SDS011;7790;53.022;12.968;2022-09-06T17:54:22;3.00;;;2.30;;
15383;SDS011;7790;53.022;12.968;2022-09-06T17:58:23;4.17;;;2.40;;
15383;SDS011;7790;53.022;12.968;2022-09-06T18:02:24;3.83;;;1.97;;
15383;SDS011;7790;53.022;12.968;2022-09-06T18:06:26;2.90;;;2.00;;
15383;SDS011;7790;53.022;12.968;2022-09-06T18:10:28;2.70;;;1.90;;
15383;SDS011;7790;53.022;12.968;2022-09-06T18:14:32;2.53;;;1.87;;
15383;SDS011;7790;53.022;12.968;2022-09-06T18:18:34;3.13;;;2.00;;
15383;SDS011;7790;53.022;12.968;2022-09-06T18:22:36;2.97;;;2.00;;
15383;SDS011;7790;53.022;12.968;2022-09-06T18:26:38;8.57;;;2.23;;
15383;SDS011;7790;53.022;12.968;2022-09-06T18:30:40;3.60;;;2.17;;
15383;SDS011;7790;53.022;12.968;2022-09-06T18:34:41;6.53;;;1.83;;
15383;SDS011;7790;53.022;12.968;2022-09-06T18:38:42;3.20;;;2.00;;
15383;SDS011;7790;53.022;12.968;2022-09-06T18:42:43;6.73;;;2.00;;
15383;SDS011;7790;53.022;12.968;2022-09-06T18:46:44;3.43;;;2.10;;
15383;SDS011;7790;53.022;12.968;2022-09-06T18:50:45;5.30;;;2.00;;
15383;SDS011;7790;53.022;12.968;2022-09-06T18:54:46;3.67;;;1.80;;
15383;SDS011;7790;53.022;12.968;2022-09-06T18:58:48;5.37;;;2.30;;
15383;SDS011;7790;53.022;12.968;2022-09-06T19:02:51;8.23;;;1.90;;
15383;SDS011;7790;53.022;12.968;2022-09-06T19:06:51;9.80;;;1.80;;
15383;SDS011;7790;53.022;12.968;2022-09-06T19:11:02;5.20;;;1.63;;
15383;SDS011;7790;53.022;12.968;2022-09-06T19:15:08;3.20;;;2.00;;
15383;SDS011;7790;53.022;12.968;2022-09-06T19:19:09;5.10;;;1.90;;
15383;SDS011;7790;53.022;12.968;2022-09-06T19:23:11;4.13;;;1.93;;
15383;SDS011;7790;53.022;12.968;2022-09-06T19:27:11;6.43;;;1.80;;
15383;SDS011;7790;53.022;12.968;2022-09-06T19:31:12;3.17;;;1.70;;
15383;SDS011;7790;53.022;12.968;2022-09-06T19:35:14;2.93;;;1.90;;
15383;SDS011;7790;53.022;12.968;2022-09-06T19:39:17;3.33;;;2.00;;
15383;SDS011;7790;53.022;12.968;2022-09-06T19:43:20;5.13;;;2.40;;
15383;SDS011;7790;53.022;12.968;2022-09-06T19:47:21;2.97;;;1.80;;
15383;SDS011;7790;53.022;12.968;2022-09-06T19:51:22;3.43;;;1.70;;
15383;SDS011;7790;53.022;12.968;2022-09-06T19:55:23;3.80;;;1.77;;
15383;SDS011;7790;53.022;12.968;2022-09-06T19:59:24;3.13;;;1.60;;
15383;SDS011;7790;53.022;12.968;2022-09-06T20:03:25;4.10;;;1.77;;
15383;SDS011;7790;53.022;12.968;2022-09-06T20:07:26;5.67;;;2.03;;
15383;SDS011;7790;53.022;12.968;2022-09-06T20:11:28;3.70;;;1.97;;
15383;SDS011;7790;53.022;12.968;2022-09-06T20:15:30;6.00;;;2.37;;
15383;SDS011;7790;53.022;12.968;2022-09-06T20:19:32;2.90;;;1.80;;
15383;SDS011;7790;53.022;12.968;2022-09-06T20:23:33;2.03;;;1.43;;
15383;SDS011;7790;53.022;12.968;2022-09-06T20:27:35;2.00;;;1.40;;
15383;SDS011;7790;53.022;12.968;2022-09-06T20:31:36;2.20;;;1.50;;
15383;SDS011;7790;53.022;12.968;2022-09-06T20:35:37;3.27;;;1.70;;
15383;SDS011;7790;53.022;12.968;2022-09-06T20:39:38;2.87;;;1.50;;
15383;SDS011;7790;53.022;12.968;2022-09-06T20:43:39;3.73;;;1.60;;
15383;SDS011;7790;53.022;12.968;2022-09-06T20:47:41;2.30;;;1.50;;
15383;SDS011;7790;53.022;12.968;2022-09-06T20:51:42;5.93;;;2.00;;
15383;SDS011;7790;53.022;12.968;2022-09-06T20:55:43;2.30;;;1.40;;
15383;SDS011;7790;53.022;12.968;2022-09-06T20:59:44;2.13;;;1.23;;
15383;SDS011;7790;53.022;12.968;2022-09-06T21:03:45;2.60;;;1.67;;
15383;SDS011;7790;53.022;12.968;2022-09-06T21:07:45;2.63;;;1.23;;
15383;SDS011;7790;53.022;12.968;2022-09-06T21:11:46;2.03;;;1.40;;
15383;SDS011;7790;53.022;12.968;2022-09-06T21:15:47;1.50;;;1.40;;
15383;SDS011;7790;53.022;12.968;2022-09-06T21:19:49;2.10;;;1.50;;
15383;SDS011;7790;53.022;12.968;2022-09-06T21:23:50;2.50;;;1.40;;
15383;SDS011;7790;53.022;12.968;2022-09-06T21:27:51;1.60;;;1.17;;
15383;SDS011;7790;53.022;12.968;2022-09-06T21:31:52;3.03;;;1.60;;
15383;SDS011;7790;53.022;12.968;2022-09-06T21:35:56;1.50;;;1.40;;
15383;SDS011;7790;53.022;12.968;2022-09-06T21:39:59;2.30;;;1.57;;
15383;SDS011;7790;53.022;12.968;2022-09-06T21:44:01;1.40;;;1.30;;
15383;SDS011;7790;53.022;12.968;2022-09-06T21:48:02;2.53;;;1.23;;
15383;SDS011;7790;53.022;12.968;2022-09-06T21:52:03;1.67;;;1.30;;
15383;SDS011;7790;53.022;12.968;2022-09-06T21:56:05;1.23;;;1.20;;
15383;SDS011;7790;53.022;12.968;2022-09-06T22:00:06;3.67;;;1.50;;
15383;SDS011;7790;53.022;12.968;2022-09-06T22:04:07;1.50;;;1.40;;
15383;SDS011;7790;53.022;12.968;2022-09-06T22:08:09;1.83;;;1.47;;
15383;SDS011;7790;53.022;12.968;2022-09-06T22:12:10;1.70;;;1.47;;
15383;SDS011;7790;53.022;12.968;2022-09-06T22:16:12;1.73;;;1.30;;
15383;SDS011;7790;53.022;12.968;2022-09-06T22:20:14;1.73;;;1.30;;
15383;SDS011;7790;53.022;12.968;2022-09-06T22:24:15;1.50;;;1.33;;
15383;SDS011;7790;53.022;12.968;2022-09-06T22:28:16;2.33;;;1.40;;
15383;SDS011;7790;53.022;12.968;2022-09-06T22:32:17;1.83;;;1.60;;
15383;SDS011;7790;53.022;12.968;2022-09-06T22:36:22;1.70;;;1.17;;
15383;SDS011;7790;53.022;12.968;2022-09-06T22:40:24;1.50;;;1.30;;
15383;SDS011;7790;53.022;12.968;2022-09-06T22:44:26;2.53;;;1.47;;
15383;SDS011;7790;53.022;12.968;2022-09-06T22:48:27;1.60;;;1.10;;
15383;SDS011;7790;53.022;12.968;2022-09-06T22:52:28;2.90;;;1.30;;
15383;SDS011;7790;53.022;12.968;2022-09-06T22:56:29;1.70;;;1.30;;
15383;SDS011;7790;53.022;12.968;2022-09-06T23:00:31;2.23;;;1.50;;
15383;SDS011;7790;53.022;12.968;2022-09-06T23:04:35;2.93;;;1.40;;
15383;SDS011;7790;53.022;12.968;2022-09-06T23:08:36;4.67;;;1.63;;
15383;SDS011;7790;53.022;12.968;2022-09-06T23:12:38;2.17;;;1.50;;
15383;SDS011;7790;53.022;12.968;2022-09-06T23:16:39;1.47;;;1.37;;
15383;SDS011;7790;53.022;12.968;2022-09-06T23:20:40;1.30;;;1.20;;
15383;SDS011;7790;53.022;12.968;2022-09-06T23:24:41;1.30;;;1.20;;
15383;SDS011;7790;53.022;12.968;2022-09-06T23:28:45;2.67;;;1.23;;
15383;SDS011;7790;53.022;12.968;2022-09-06T23:32:46;1.83;;;1.43;;
15383;SDS011;7790;53.022;12.968;2022-09-06T23:36:47;1.40;;;1.30;;
15383;SDS011;7790;53.022;12.968;2022-09-06T23:40:48;1.17;;;1.07;;
15383;SDS011;7790;53.022;12.968;2022-09-06T23:44:50;1.40;;;1.30;;
15383;SDS011;7790;53.022;12.968;2022-09-06T23:48:56;1.20;;;1.10;;
15383;SDS011;7790;53.022;12.968;2022-09-06T23:52:57;1.43;;;1.33;;
15383;SDS011;7790;53.022;12.968;2022-09-06T23:56:57;1.00;;;1.00;;
